TimePST,TemperatureF,Dew PointF,Humidity,Sea Level PressureIn,VisibilityMPH,Wind Direction,Wind SpeedMPH,Gust SpeedMPH,PrecipitationIn,Events,Conditions,WindDirDegrees,DateUTC
12:53 AM,21.9,18.0,85,30.14,10.0,Calm,Calm,-,N/A,,Clear,0,2013-02-10 08:53:00
1:53 AM,21.9,18.0,85,30.16,10.0,Calm,Calm,-,N/A,,Scattered Clouds,0,2013-02-10 09:53:00
2:53 AM,21.9,17.1,82,30.16,10.0,Calm,Calm,-,N/A,,Overcast,0,2013-02-10 10:53:00
3:53 AM,19.9,16.0,85,30.18,10.0,Calm,Calm,-,N/A,,Partly Cloudy,0,2013-02-10 11:53:00
4:53 AM,21.0,17.1,85,30.19,10.0,Calm,Calm,-,N/A,,Overcast,0,2013-02-10 12:53:00
5:53 AM,21.0,17.1,85,30.19,9.0,Calm,Calm,-,0.00,,Overcast,0,2013-02-10 13:53:00
6:53 AM,19.9,17.1,89,30.21,10.0,Calm,Calm,-,N/A,,Overcast,0,2013-02-10 14:53:00
7:53 AM,21.0,18.0,88,30.21,4.0,Calm,Calm,-,0.00,Snow,Light Snow,0,2013-02-10 15:53:00
8:08 AM,21.2,19.4,93,30.06,7.0,Calm,Calm,-,0.00,Snow,Light Snow,0,2013-02-10 16:08:00
8:17 AM,21.2,19.4,93,30.05,9.0,Calm,Calm,-,0.00,,Scattered Clouds,0,2013-02-10 16:17:00
8:53 AM,23.0,21.0,92,30.20,10.0,Calm,Calm,-,0.00,,Clear,0,2013-02-10 16:53:00
9:53 AM,23.0,21.0,92,30.21,10.0,Calm,Calm,-,N/A,,Clear,0,2013-02-10 17:53:00
10:18 AM,24.8,21.2,86,30.06,10.0,Calm,Calm,-,N/A,,Scattered Clouds,0,2013-02-10 18:18:00
10:27 AM,24.8,21.2,86,30.07,10.0,Variable,3.5,-,N/A,,Mostly Cloudy,0,2013-02-10 18:27:00
10:53 AM,24.1,21.0,88,30.21,10.0,Calm,Calm,-,N/A,,Overcast,0,2013-02-10 18:53:00
11:25 AM,21.2,17.6,86,30.06,10.0,Calm,Calm,-,N/A,,Scattered Clouds,0,2013-02-10 19:25:00
11:32 AM,23.0,19.4,86,30.05,10.0,NNW,3.5,-,N/A,,Mostly Cloudy,330,2013-02-10 19:32:00
11:50 AM,23.0,21.2,93,30.05,10.0,Calm,Calm,-,N/A,,Overcast,0,2013-02-10 19:50:00
11:53 AM,23.0,21.0,92,30.19,10.0,Calm,Calm,-,N/A,,Overcast,0,2013-02-10 19:53:00
12:11 PM,24.8,21.2,86,30.04,10.0,Calm,Calm,-,N/A,,Mostly Cloudy,0,2013-02-10 20:11:00
12:53 PM,24.1,21.9,91,30.19,9.0,NW,4.6,-,0.03,Snow,Light Snow,320,2013-02-10 20:53:00
1:02 PM,24.8,23.0,93,30.04,10.0,Variable,4.6,-,0.00,,Mostly Cloudy,0,2013-02-10 21:02:00
1:53 PM,26.1,23.0,88,30.17,10.0,Calm,Calm,-,0.08,,Overcast,0,2013-02-10 21:53:00
2:43 PM,23.0,21.2,93,30.04,2.5,NNW,3.5,-,0.03,,Overcast,340,2013-02-10 22:43:00
2:53 PM,24.1,21.9,91,30.19,5.0,Variable,5.8,-,0.03,,Overcast,0,2013-02-10 22:53:00
3:13 PM,23.0,21.2,93,30.04,1.8,NNW,5.8,-,N/A,,Overcast,330,2013-02-10 23:13:00
3:15 PM,23.0,21.2,93,30.04,1.0,Variable,5.8,-,N/A,,Mist,0,2013-02-10 23:15:00
3:21 PM,23.0,21.2,93,30.04,0.2,Variable,3.5,-,N/A,Fog,Light Freezing Fog,0,2013-02-10 23:21:00
3:53 PM,23.0,21.9,96,30.19,0.2,NNW,5.8,-,N/A,Fog,Light Freezing Fog,340,2013-02-10 23:53:00
4:53 PM,21.0,19.9,96,30.19,0.2,NW,5.8,-,N/A,Fog,Light Freezing Fog,320,2013-02-11 00:53:00
5:07 PM,21.2,19.4,93,30.03,0.8,NNW,4.6,-,N/A,,Mist,330,2013-02-11 01:07:00
5:14 PM,21.2,19.4,93,30.03,1.2,Variable,4.6,-,N/A,,Overcast,0,2013-02-11 01:14:00
5:30 PM,19.4,19.4,100,30.04,0.5,NW,5.8,-,N/A,Fog,Light Freezing Fog,320,2013-02-11 01:30:00
5:53 PM,19.9,19.0,96,30.20,0.5,NNW,4.6,-,N/A,Fog,Light Freezing Fog,330,2013-02-11 01:53:00
6:03 PM,19.4,19.4,100,30.04,1.5,Variable,3.5,-,N/A,,Overcast,0,2013-02-11 02:03:00
6:24 PM,19.4,19.4,100,30.04,1.0,Variable,3.5,-,N/A,,Mist,0,2013-02-11 02:24:00
6:33 PM,19.4,19.4,100,30.04,0.2,NNW,3.5,-,N/A,Fog,Light Freezing Fog,330,2013-02-11 02:33:00
6:43 PM,19.4,19.4,100,30.04,0.8,Variable,4.6,-,N/A,,Mist,0,2013-02-11 02:43:00
6:50 PM,19.4,19.4,100,30.04,1.2,Variable,4.6,-,N/A,,Overcast,0,2013-02-11 02:50:00
6:53 PM,19.9,19.0,96,30.22,1.2,NW,5.8,-,N/A,,Overcast,310,2013-02-11 02:53:00
7:00 PM,19.4,19.4,100,30.04,1.5,Variable,4.6,-,N/A,,Overcast,0,2013-02-11 03:00:00
7:12 PM,19.4,19.4,100,30.04,2.0,Calm,Calm,-,N/A,,Overcast,0,2013-02-11 03:12:00
7:17 PM,19.4,19.4,100,30.04,1.2,Calm,Calm,-,N/A,,Overcast,0,2013-02-11 03:17:00
7:23 PM,19.4,19.4,100,30.04,0.8,Variable,4.6,-,N/A,,Mist,0,2013-02-11 03:23:00
7:53 PM,21.0,18.0,88,30.20,1.0,Calm,Calm,-,N/A,,Mist,0,2013-02-11 03:53:00
8:03 PM,21.2,17.6,86,30.03,0.5,Calm,Calm,-,N/A,Fog,Light Freezing Fog,0,2013-02-11 04:03:00
8:25 PM,21.2,17.6,86,30.03,1.0,Calm,Calm,-,N/A,,Mist,0,2013-02-11 04:25:00
8:31 PM,21.2,17.6,86,30.03,2.0,NW,3.5,-,N/A,,Overcast,320,2013-02-11 04:31:00
8:40 PM,21.2,17.6,86,30.02,6.0,Calm,Calm,-,N/A,,Overcast,0,2013-02-11 04:40:00
8:50 PM,21.2,17.6,86,30.02,1.8,Calm,Calm,-,N/A,,Overcast,0,2013-02-11 04:50:00
8:53 PM,21.0,17.1,85,30.18,1.8,Variable,3.5,-,N/A,,Overcast,0,2013-02-11 04:53:00
9:22 PM,21.2,17.6,86,30.02,1.2,Calm,Calm,-,N/A,,Overcast,0,2013-02-11 05:22:00
9:36 PM,21.2,17.6,86,30.02,1.0,NW,5.8,-,N/A,,Mist,320,2013-02-11 05:36:00
9:53 PM,21.0,18.0,88,30.17,0.5,Variable,3.5,-,N/A,Fog,Light Freezing Fog,0,2013-02-11 05:53:00
10:13 PM,21.2,17.6,86,30.01,1.0,NW,3.5,-,N/A,,Mist,310,2013-02-11 06:13:00
10:24 PM,21.2,17.6,86,30.01,0.8,NW,3.5,-,N/A,,Mist,320,2013-02-11 06:24:00
10:35 PM,21.2,17.6,86,30.01,1.2,NW,3.5,-,N/A,,Overcast,320,2013-02-11 06:35:00
10:53 PM,21.0,17.1,85,30.17,1.0,Variable,3.5,-,N/A,,Mist,0,2013-02-11 06:53:00
11:16 PM,21.2,17.6,86,30.02,1.5,NW,6.9,-,N/A,,Overcast,320,2013-02-11 07:16:00
11:36 PM,21.2,17.6,86,30.02,1.2,Variable,4.6,-,N/A,,Overcast,0,2013-02-11 07:36:00
11:53 PM,21.0,17.1,85,30.17,1.2,Variable,3.5,-,N/A,,Overcast,0,2013-02-11 07:53:00